Time;durP1;ratioP1;P1;durP2;ratioP2;P2;SDS_P1;SDS_P2;PMS_P1;PMS_P2;Temp;Humidity;BMP_temperature;BMP_pressure;BME280_temperature;BME280_humidity;BME280_pressure;Samples;Min_cycle;Max_cycle;Signal;HPM_P1;HPM_P2
2022/10/31 00:01:00;;;;;;;1999.90;999.90;;;14.30;99.90;;;;;;4996135;28;20034;-84
2022/10/31 00:03:26;;;;;;;1999.90;999.90;;;14.30;99.90;;;;;;5013644;28;20100;-83
2022/10/31 00:05:52;;;;;;;1999.90;999.90;;;14.30;99.90;;;;;;5013474;28;20065;-83
2022/10/31 00:08:18;;;;;;;1999.90;999.90;;;14.30;99.90;;;;;;5013454;28;20050;-84
2022/10/31 00:10:45;;;;;;;1999.90;999.90;;;14.20;99.90;;;;;;5013575;28;20029;-84
2022/10/31 00:13:12;;;;;;;1999.90;999.90;;;14.20;99.90;;;;;;4995356;28;20381;-84
2022/10/31 00:15:40;;;;;;;1999.90;999.90;;;14.20;99.90;;;;;;5013303;28;20021;-84
2022/10/31 00:18:07;;;;;;;1999.90;999.90;;;14.10;99.90;;;;;;4995641;28;20021;-84
2022/10/31 00:20:33;;;;;;;1999.90;999.90;;;14.00;99.90;;;;;;5013295;28;20026;-84
2022/10/31 00:23:03;;;;;;;1999.90;999.90;;;14.00;99.90;;;;;;5013074;28;20508;-84
2022/10/31 00:25:32;;;;;;;1999.90;999.90;;;14.00;99.90;;;;;;4995372;28;20084;-84
2022/10/31 00:27:58;;;;;;;1999.90;999.90;;;13.90;99.90;;;;;;4995286;28;20033;-84
2022/10/31 00:30:24;;;;;;;1999.90;999.90;;;13.90;99.90;;;;;;5029801;28;20029;-84
2022/10/31 00:32:49;;;;;;;1999.90;999.90;;;13.80;99.90;;;;;;5032986;28;20036;-84
2022/10/31 00:35:15;;;;;;;1999.90;999.90;;;13.80;99.90;;;;;;5032938;28;20029;-84
2022/10/31 00:37:40;;;;;;;1999.90;999.90;;;13.80;99.90;;;;;;5032445;28;20071;-84
2022/10/31 00:40:07;;;;;;;1999.90;999.90;;;13.80;99.90;;;;;;5031849;28;20480;-84
2022/10/31 00:42:32;;;;;;;1999.90;999.90;;;13.80;99.90;;;;;;5014927;28;20412;-84
2022/10/31 00:44:58;;;;;;;1999.90;999.90;;;13.80;99.90;;;;;;5031968;28;20030;-84
2022/10/31 00:47:23;;;;;;;1999.90;999.90;;;13.80;99.90;;;;;;5031652;28;20021;-84
2022/10/31 00:49:49;;;;;;;1999.90;999.90;;;13.80;99.90;;;;;;5032633;28;20056;-84
2022/10/31 00:52:15;;;;;;;1999.90;999.90;;;13.80;99.90;;;;;;5032322;28;20548;-84
2022/10/31 00:54:40;;;;;;;1999.90;999.90;;;13.80;99.90;;;;;;5032350;28;20107;-84
2022/10/31 00:57:06;;;;;;;1999.90;999.90;;;13.80;99.90;;;;;;5026683;28;20010;-84
2022/10/31 00:59:31;;;;;;;1999.90;999.90;;;13.80;99.90;;;;;;5012492;28;20397;-84
2022/10/31 01:01:57;;;;;;;1999.90;999.90;;;13.70;99.90;;;;;;5012676;28;20397;-84
2022/10/31 01:04:23;;;;;;;1999.90;999.90;;;13.70;99.90;;;;;;4995117;28;20030;-84
2022/10/31 01:06:48;;;;;;;1999.90;999.90;;;13.60;99.90;;;;;;5012324;28;20021;-84
2022/10/31 01:09:14;;;;;;;1999.90;999.90;;;13.60;99.90;;;;;;5012654;28;20045;-84
2022/10/31 01:11:39;;;;;;;1999.90;999.90;;;13.60;99.90;;;;;;5012520;28;20115;-84
2022/10/31 01:14:05;;;;;;;1999.90;999.90;;;13.60;99.90;;;;;;5012210;28;20032;-83
2022/10/31 01:16:31;;;;;;;1999.90;999.90;;;13.50;99.90;;;;;;5012658;28;20038;-83
2022/10/31 01:18:56;;;;;;;1999.90;999.90;;;13.50;99.90;;;;;;5012648;28;20026;-84
2022/10/31 01:21:25;;;;;;;1999.90;999.90;;;13.40;99.90;;;;;;4994100;28;20034;-83
2022/10/31 01:23:53;;;;;;;1999.90;999.90;;;13.40;99.90;;;;;;4993069;28;20250;-83
2022/10/31 01:26:27;;;;;;;1999.90;999.90;;;13.40;99.90;;;;;;5013608;28;20378;-83
2022/10/31 01:29:00;;;;;;;1999.90;999.90;;;13.30;99.90;;;;;;5011954;28;20041;-82
2022/10/31 01:31:29;;;;;;;1999.90;999.90;;;13.30;99.90;;;;;;4992768;28;20049;-83
2022/10/31 01:33:55;;;;;;;1999.90;999.90;;;13.20;99.90;;;;;;4992614;28;20114;-84
2022/10/31 01:36:30;;;;;;;1999.90;999.90;;;13.20;99.90;;;;;;4992423;28;20084;-83
2022/10/31 01:38:58;;;;;;;1999.90;999.90;;;13.20;99.90;;;;;;4995365;28;20023;-84
2022/10/31 01:41:28;;;;;;;1999.90;999.90;;;13.20;99.90;;;;;;4996664;28;20023;-83
2022/10/31 01:43:56;;;;;;;1999.90;999.90;;;13.20;99.90;;;;;;4996305;28;20089;-84
2022/10/31 01:46:27;;;;;;;1999.90;999.90;;;13.20;99.90;;;;;;4999202;28;20042;-84
2022/10/31 01:48:54;;;;;;;1999.90;999.90;;;13.20;99.90;;;;;;5035953;28;20492;-84
2022/10/31 01:51:23;;;;;;;1999.90;999.90;;;13.20;99.90;;;;;;5035631;28;20097;-84
2022/10/31 01:53:52;;;;;;;1999.90;999.90;;;13.20;99.90;;;;;;5035574;28;20045;-84
2022/10/31 01:56:18;;;;;;;1999.90;999.90;;;13.20;99.90;;;;;;5035546;28;20021;-83
2022/10/31 01:58:46;;;;;;;1999.90;999.90;;;13.20;99.90;;;;;;5017567;28;20029;-83
2022/10/31 02:01:14;;;;;;;1999.90;999.90;;;13.20;99.90;;;;;;5035799;28;20051;-84
2022/10/31 02:03:40;;;;;;;1999.90;999.90;;;13.20;99.90;;;;;;5035433;28;20500;-84
2022/10/31 02:06:14;;;;;;;1999.90;999.90;;;13.30;99.90;;;;;;5034982;28;20037;-83
2022/10/31 02:08:40;;;;;;;1999.90;999.90;;;13.30;99.90;;;;;;5035884;28;20030;-83
2022/10/31 02:11:08;;;;;;;1999.90;999.90;;;13.20;99.90;;;;;;5035562;28;20488;-84
2022/10/31 02:13:34;;;;;;;1999.90;999.90;;;13.20;99.90;;;;;;5035086;28;20132;-83
2022/10/31 02:16:00;;;;;;;1999.90;999.90;;;13.20;99.90;;;;;;5035562;28;20025;-84
2022/10/31 02:18:29;;;;;;;1999.90;999.90;;;13.20;99.90;;;;;;5035341;28;20053;-84
2022/10/31 02:21:20;;;;;;;1999.90;999.90;;;13.20;99.90;;;;;;5035038;28;20107;-84
2022/10/31 02:24:15;;;;;;;1999.90;999.90;;;13.30;99.90;;;;;;5016049;28;20191;-82
2022/10/31 02:27:15;;;;;;;1999.90;999.90;;;13.30;99.90;;;;;;4991786;28;20084;-84
2022/10/31 02:30:32;;;;;;;1999.90;999.90;;;13.30;99.90;;;;;;5035072;28;20108;-84
2022/10/31 02:33:03;;;;;;;1999.90;999.90;;;13.30;99.90;;;;;;4991257;28;20095;-83
2022/10/31 02:35:32;;;;;;;1999.90;999.90;;;13.30;99.90;;;;;;5017071;28;20076;-84
2022/10/31 02:38:24;;;;;;;1999.90;999.90;;;13.30;99.90;;;;;;5034710;28;20033;-84
2022/10/31 02:41:27;;;;;;;1999.90;999.90;;;13.40;99.90;;;;;;5035121;28;20034;-84
2022/10/31 02:44:10;;;;;;;1999.90;999.90;;;13.40;99.90;;;;;;5016892;28;20033;-82
2022/10/31 02:47:08;;;;;;;1999.90;999.90;;;13.40;99.90;;;;;;5028014;28;20026;-83
2022/10/31 02:49:38;;;;;;;1999.90;999.90;;;13.40;99.90;;;;;;4980487;28;20630;-83
2022/10/31 02:52:30;;;;;;;1999.90;999.90;;;13.40;99.90;;;;;;5022855;28;20059;-83
2022/10/31 02:54:56;;;;;;;1999.90;999.90;;;13.40;99.90;;;;;;5034541;28;20489;-83
2022/10/31 02:57:32;;;;;;;1999.90;999.90;;;13.40;99.90;;;;;;5034421;28;20018;-84
2022/10/31 03:00:06;;;;;;;1999.90;999.90;;;13.30;99.90;;;;;;5034638;28;20060;-84
2022/10/31 03:02:52;;;;;;;1999.90;999.90;;;13.30;99.90;;;;;;5034518;28;20029;-84
2022/10/31 03:05:32;;;;;;;1999.90;999.90;;;13.30;99.90;;;;;;5034540;28;20069;-84
2022/10/31 03:08:22;;;;;;;1999.90;999.90;;;13.30;99.90;;;;;;5012391;28;20022;-84
2022/10/31 03:10:59;;;;;;;1999.90;999.90;;;13.40;99.90;;;;;;5014468;28;20057;-84
2022/10/31 03:13:57;;;;;;;1999.90;999.90;;;13.40;99.90;;;;;;5014329;28;20021;-83
2022/10/31 03:16:34;;;;;;;1999.90;999.90;;;13.50;99.90;;;;;;4998997;28;20040;-84
2022/10/31 03:19:02;;;;;;;1999.90;999.90;;;13.50;99.90;;;;;;5014801;28;20026;-84
2022/10/31 03:21:40;;;;;;;1999.90;999.90;;;13.50;99.90;;;;;;5014038;28;20026;-84
2022/10/31 03:24:08;;;;;;;1999.90;999.90;;;13.50;99.90;;;;;;5013939;28;20037;-83
2022/10/31 03:26:38;;;;;;;1999.90;999.90;;;13.50;99.90;;;;;;5013097;28;20169;-84
2022/10/31 03:29:06;;;;;;;1999.90;999.90;;;13.50;99.90;;;;;;5001119;28;20040;-84
2022/10/31 03:31:37;;;;;;;1999.90;999.90;;;13.50;99.90;;;;;;4996682;28;20515;-84
2022/10/31 03:34:05;;;;;;;1999.90;999.90;;;13.50;99.90;;;;;;4996365;28;20036;-84
2022/10/31 03:36:36;;;;;;;1999.90;999.90;;;13.50;99.90;;;;;;4996123;28;20026;-83
2022/10/31 03:39:04;;;;;;;1999.90;999.90;;;13.50;99.90;;;;;;5014178;28;20428;-84
2022/10/31 03:41:34;;;;;;;1999.90;999.90;;;13.50;99.90;;;;;;5013932;28;20034;-84
2022/10/31 03:44:06;;;;;;;1999.90;999.90;;;13.50;99.90;;;;;;4996372;28;20030;-84
2022/10/31 03:46:32;;;;;;;1999.90;999.90;;;13.50;99.90;;;;;;5013088;28;20033;-84
2022/10/31 03:48:58;;;;;;;1999.90;999.90;;;13.50;99.90;;;;;;5013326;28;20034;-84
2022/10/31 03:51:38;;;;;;;1999.90;999.90;;;13.60;99.90;;;;;;4995995;28;20030;-84
2022/10/31 03:54:25;;;;;;;1999.90;999.90;;;13.60;99.90;;;;;;5013412;28;20100;-83
2022/10/31 03:56:56;;;;;;;1999.90;999.90;;;13.60;99.90;;;;;;5013651;28;20018;-84
2022/10/31 03:59:27;;;;;;;1999.90;999.90;;;13.60;99.90;;;;;;5013736;28;20101;-84
2022/10/31 04:01:58;;;;;;;1999.90;999.90;;;13.60;99.90;;;;;;5013466;28;20022;-84
2022/10/31 04:04:24;;;;;;;1999.90;999.90;;;13.60;99.90;;;;;;4996482;28;20022;-84
2022/10/31 04:06:52;;;;;;;1999.90;999.90;;;13.50;99.90;;;;;;5013650;28;20037;-84
2022/10/31 04:09:19;;;;;;;1999.90;999.90;;;13.50;99.90;;;;;;5012183;28;20105;-84
2022/10/31 04:11:51;;;;;;;1999.90;999.90;;;13.50;99.90;;;;;;5013332;28;20037;-84
2022/10/31 04:14:16;;;;;;;1999.90;999.90;;;13.50;99.90;;;;;;5013419;28;20034;-84
2022/10/31 04:16:44;;;;;;;1999.90;999.90;;;13.50;99.90;;;;;;5013226;28;20106;-84
2022/10/31 04:19:13;;;;;;;1999.90;999.90;;;13.50;99.90;;;;;;5012547;28;20018;-84
2022/10/31 04:21:38;;;;;;;1999.90;999.90;;;13.50;99.90;;;;;;5012783;28;20026;-84
2022/10/31 04:24:04;;;;;;;1999.90;999.90;;;13.50;99.90;;;;;;5012892;28;20389;-83
2022/10/31 04:26:30;;;;;;;1999.90;999.90;;;13.50;99.90;;;;;;5013241;28;20037;-84
2022/10/31 04:28:55;;;;;;;1999.90;999.90;;;13.50;99.90;;;;;;5012191;28;20033;-84
2022/10/31 04:31:21;;;;;;;1999.90;999.90;;;13.50;99.90;;;;;;5013329;28;20041;-84
2022/10/31 04:33:46;;;;;;;1999.90;999.90;;;13.60;99.90;;;;;;5013019;28;20397;-84
2022/10/31 04:36:12;;;;;;;1999.90;999.90;;;13.60;99.90;;;;;;5012742;28;20485;-84
2022/10/31 04:38:38;;;;;;;1999.90;999.90;;;13.60;99.90;;;;;;5012748;28;20029;-83
2022/10/31 04:41:04;;;;;;;1999.90;999.90;;;13.60;99.90;;;;;;5012980;28;20033;-83
2022/10/31 04:43:29;;;;;;;1999.90;999.90;;;13.60;99.90;;;;;;5012911;28;20546;-83
2022/10/31 04:45:55;;;;;;;1999.90;999.90;;;13.60;99.90;;;;;;5012836;28;20444;-84
2022/10/31 04:48:21;;;;;;;1999.90;999.90;;;13.70;99.90;;;;;;5012623;28;20025;-83
2022/10/31 04:50:46;;;;;;;1999.90;999.90;;;13.70;99.90;;;;;;5012951;28;20034;-82
2022/10/31 04:53:12;;;;;;;1999.90;999.90;;;13.80;99.90;;;;;;5012666;28;20034;-84
2022/10/31 04:55:37;;;;;;;1999.90;999.90;;;13.90;99.90;;;;;;5012944;28;20062;-83
2022/10/31 04:58:03;;;;;;;1999.90;999.90;;;13.90;99.90;;;;;;5012452;28;20033;-83
2022/10/31 05:00:29;;;;;;;1999.90;999.90;;;13.90;99.90;;;;;;5012648;28;20108;-83
2022/10/31 05:02:56;;;;;;;1999.90;999.90;;;14.00;99.90;;;;;;4995243;28;20068;-83
2022/10/31 05:05:28;;;;;;;1999.90;999.90;;;14.00;99.90;;;;;;4995108;28;20027;-83
2022/10/31 05:07:54;;;;;;;1999.90;999.90;;;14.10;99.90;;;;;;5011597;28;20385;-83
2022/10/31 05:10:26;;;;;;;1999.90;999.90;;;14.10;99.90;;;;;;5012590;28;20022;-83
2022/10/31 05:13:00;;;;;;;1999.90;999.90;;;14.20;99.90;;;;;;4994374;28;20058;-83
2022/10/31 05:15:27;;;;;;;1999.90;999.90;;;14.30;99.90;;;;;;5012637;28;20032;-83
2022/10/31 05:17:53;;;;;;;1999.90;999.90;;;14.30;99.90;;;;;;5012431;28;20026;-83
2022/10/31 05:20:21;;;;;;;1999.90;999.90;;;14.20;99.90;;;;;;5012319;28;20481;-83
2022/10/31 05:22:52;;;;;;;1999.90;999.90;;;14.20;99.90;;;;;;4994591;28;20018;-83
2022/10/31 05:25:20;;;;;;;1999.90;999.90;;;14.20;99.90;;;;;;5012599;28;20109;-83
2022/10/31 05:27:47;;;;;;;1999.90;999.90;;;14.20;99.90;;;;;;5012004;28;20026;-83
2022/10/31 05:30:16;;;;;;;1999.90;999.90;;;14.10;99.90;;;;;;5012451;28;20441;-83
2022/10/31 05:32:47;;;;;;;1999.90;999.90;;;14.10;99.90;;;;;;5012359;28;20022;-83
2022/10/31 05:35:22;;;;;;;1999.90;999.90;;;14.10;99.90;;;;;;5011467;28;20040;-83
2022/10/31 05:37:48;;;;;;;1999.90;999.90;;;14.10;99.90;;;;;;5012038;28;20401;-83
2022/10/31 05:40:15;;;;;;;1999.90;999.90;;;14.10;99.90;;;;;;5012380;28;20033;-83
2022/10/31 05:42:42;;;;;;;1999.90;999.90;;;14.10;99.90;;;;;;5012214;28;20037;-83
2022/10/31 05:45:10;;;;;;;1999.90;999.90;;;14.00;99.90;;;;;;4994578;28;20026;-83
2022/10/31 05:47:35;;;;;;;1999.90;999.90;;;14.10;99.90;;;;;;4994728;28;20045;-83
2022/10/31 05:50:01;;;;;;;1999.90;999.90;;;14.10;99.90;;;;;;5011363;28;20489;-83
2022/10/31 05:52:27;;;;;;;1999.90;999.90;;;14.10;99.90;;;;;;5011833;28;20022;-83
2022/10/31 05:54:52;;;;;;;1999.90;999.90;;;14.10;99.90;;;;;;5012280;28;20029;-83
2022/10/31 05:57:18;;;;;;;1999.90;999.90;;;14.10;99.90;;;;;;5019525;28;20033;-83
2022/10/31 05:59:44;;;;;;;1999.90;999.90;;;14.10;99.90;;;;;;5031902;28;20523;-83
2022/10/31 06:02:09;;;;;;;1999.90;999.90;;;14.10;99.90;;;;;;5014162;28;20030;-83
2022/10/31 06:04:35;;;;;;;1999.90;999.90;;;14.10;99.90;;;;;;5031528;28;20034;-83
2022/10/31 06:07:00;;;;;;;1999.90;999.90;;;14.10;99.90;;;;;;5013357;28;20411;-83
2022/10/31 06:09:26;;;;;;;1999.90;999.90;;;14.10;99.90;;;;;;5031726;28;20511;-83
2022/10/31 06:11:52;;;;;;;1999.90;999.90;;;14.00;99.90;;;;;;5031491;28;20100;-83
2022/10/31 06:14:17;;;;;;;1999.90;999.90;;;14.00;99.90;;;;;;5031472;28;20073;-83
2022/10/31 06:16:43;;;;;;;1999.90;999.90;;;14.00;99.90;;;;;;5031754;28;20021;-83
2022/10/31 06:19:09;;;;;;;1999.90;999.90;;;13.90;99.90;;;;;;5032231;28;20061;-83
2022/10/31 06:21:34;;;;;;;1999.90;999.90;;;13.90;99.90;;;;;;5031361;28;20058;-83
2022/10/31 06:24:00;;;;;;;1999.90;999.90;;;13.90;99.90;;;;;;5031409;28;20033;-83
2022/10/31 06:26:26;;;;;;;1999.90;999.90;;;13.90;99.90;;;;;;5034399;28;20029;-83
2022/10/31 06:28:51;;;;;;;1999.90;999.90;;;13.90;99.90;;;;;;5017176;28;20489;-84
2022/10/31 06:31:17;;;;;;;1999.90;999.90;;;13.90;99.90;;;;;;5015601;28;20025;-84
2022/10/31 06:33:42;;;;;;;1999.90;999.90;;;13.90;99.90;;;;;;5015072;28;20029;-84
2022/10/31 06:36:09;;;;;;;1999.90;999.90;;;13.90;99.90;;;;;;5015008;28;20485;-84
2022/10/31 06:38:35;;;;;;;1999.90;999.90;;;13.90;99.90;;;;;;5017854;28;20038;-84
2022/10/31 06:41:05;;;;;;;1999.90;999.90;;;13.90;99.90;;;;;;5018154;28;20124;-84
2022/10/31 06:43:31;;;;;;;1999.90;999.90;;;14.00;99.90;;;;;;5015476;28;20465;-84
2022/10/31 06:45:57;;;;;;;1999.90;999.90;;;14.00;99.90;;;;;;4996522;28;20038;-84
2022/10/31 06:48:23;;;;;;;1999.90;999.90;;;14.10;99.90;;;;;;5014295;28;20108;-84
2022/10/31 06:50:49;;;;;;;1999.90;999.90;;;14.10;99.90;;;;;;5013993;28;20120;-84
2022/10/31 06:53:15;;;;;;;1999.90;999.90;;;14.10;99.90;;;;;;5013219;28;20050;-84
2022/10/31 06:55:41;;;;;;;1999.90;999.90;;;14.20;99.90;;;;;;4996227;28;20026;-84
2022/10/31 06:58:09;;;;;;;1999.90;999.90;;;14.20;99.90;;;;;;5013497;28;20029;-84
2022/10/31 07:00:35;;;;;;;1999.90;999.90;;;14.20;99.90;;;;;;5014293;28;20489;-83
2022/10/31 07:03:03;;;;;;;1999.90;999.90;;;14.20;99.90;;;;;;5014485;28;20053;-83
2022/10/31 07:05:30;;;;;;;1999.90;999.90;;;14.20;99.90;;;;;;5013867;28;20025;-83
2022/10/31 07:07:58;;;;;;;1999.90;999.90;;;14.30;99.90;;;;;;5016167;28;20017;-82
2022/10/31 07:10:26;;;;;;;1999.90;999.90;;;14.30;99.90;;;;;;5012538;28;20397;-83
2022/10/31 07:12:56;;;;;;;1999.90;999.90;;;14.40;99.90;;;;;;5013575;28;20116;-82
2022/10/31 07:15:23;;;;;;;1999.90;999.90;;;14.40;99.90;;;;;;5012619;28;20034;-82
2022/10/31 07:17:48;;;;;;;1999.90;999.90;;;14.40;99.90;;;;;;5013067;28;20104;-84
2022/10/31 07:20:14;;;;;;;1999.90;999.90;;;14.50;99.90;;;;;;4996016;28;20117;-83
2022/10/31 07:22:40;;;;;;;1999.90;999.90;;;14.50;99.90;;;;;;5011533;28;20175;-84
2022/10/31 07:25:06;;;;;;;1999.90;999.90;;;14.60;99.90;;;;;;5013783;28;20525;-84
2022/10/31 07:27:42;;;;;;;1999.90;999.90;;;14.60;99.90;;;;;;5022285;28;20021;-84
2022/10/31 07:30:09;;;;;;;1999.90;999.90;;;14.60;99.90;;;;;;5022183;28;20037;-84
2022/10/31 07:32:45;;;;;;;1999.90;999.90;;;14.60;99.90;;;;;;5013717;28;20108;-84
2022/10/31 07:35:25;;;;;;;1999.90;999.90;;;14.70;99.90;;;;;;5013360;28;20041;-83
2022/10/31 07:37:51;;;;;;;1999.90;999.90;;;14.70;99.90;;;;;;5013459;28;20022;-83
2022/10/31 07:40:17;;;;;;;1999.90;999.90;;;14.80;99.90;;;;;;4995104;28;20029;-84
2022/10/31 07:42:46;;;;;;;1999.90;999.90;;;14.90;99.90;;;;;;5013315;28;20038;-83
2022/10/31 07:45:15;;;;;;;1999.90;999.90;;;14.90;99.90;;;;;;5013633;28;20034;-83
2022/10/31 07:47:48;;;;;;;1999.90;999.90;;;15.00;99.90;;;;;;5012476;28;20484;-82
2022/10/31 07:50:25;;;;;;;1999.90;999.90;;;15.10;99.90;;;;;;5012406;28;20217;-82
2022/10/31 07:53:11;;;;;;;1999.90;999.90;;;15.10;99.90;;;;;;5010706;28;20117;-83
2022/10/31 07:55:37;;;;;;;1999.90;999.90;;;15.20;99.90;;;;;;4995457;28;20026;-83
2022/10/31 07:58:04;;;;;;;1999.90;999.90;;;15.30;99.90;;;;;;5012739;28;20018;-84
2022/10/31 08:00:31;;;;;;;1999.90;999.90;;;15.30;99.90;;;;;;5013032;28;20488;-85
2022/10/31 08:03:07;;;;;;;1999.90;999.90;;;15.30;99.90;;;;;;4995875;28;20393;-85
2022/10/31 08:05:34;;;;;;;1999.90;999.90;;;15.40;99.90;;;;;;5013096;28;20028;-79
2022/10/31 08:08:00;;;;;;;1999.90;999.90;;;15.40;99.90;;;;;;5011476;28;20040;-80
2022/10/31 08:10:26;;;;;;;1999.90;999.90;;;15.40;99.90;;;;;;5011823;28;20025;-79
2022/10/31 08:12:59;;;;;;;1999.90;999.90;;;15.50;99.90;;;;;;5013219;28;20025;-80
2022/10/31 08:15:26;;;;;;;1999.90;999.90;;;15.60;99.90;;;;;;4996322;28;20040;-82
2022/10/31 08:17:51;;;;;;;1999.90;999.90;;;15.60;99.90;;;;;;5012406;28;20390;-80
2022/10/31 08:20:17;;;;;;;1999.90;999.90;;;15.70;99.90;;;;;;5011900;28;20072;-80
2022/10/31 08:22:43;;;;;;;1999.90;999.90;;;15.70;99.90;;;;;;5011251;28;20389;-80
2022/10/31 08:25:09;;;;;;;1999.90;999.90;;;15.70;99.90;;;;;;5012897;28;20532;-79
2022/10/31 08:27:34;;;;;;;1999.90;999.90;;;15.70;99.90;;;;;;5026386;28;20025;-80
2022/10/31 08:30:00;;;;;;;1999.90;999.90;;;15.80;99.90;;;;;;5033248;28;20029;-81
2022/10/31 08:32:26;;;;;;;1999.90;999.90;;;15.80;99.90;;;;;;5033906;28;20025;-81
2022/10/31 08:34:51;;;;;;;1999.90;999.90;;;15.90;99.90;;;;;;5034180;28;20044;-80
2022/10/31 08:37:19;;;;;;;1999.90;999.90;;;15.90;99.90;;;;;;5031990;28;20072;-79
2022/10/31 08:39:46;;;;;;;1999.90;999.90;;;16.00;99.90;;;;;;5030276;28;20030;-79
2022/10/31 08:42:12;;;;;;;1999.90;999.90;;;16.10;99.90;;;;;;5007273;28;20026;-79
2022/10/31 08:44:38;;;;;;;1999.90;999.90;;;16.10;99.90;;;;;;5011880;28;20137;-79
2022/10/31 08:47:04;;;;;;;1999.90;999.90;;;16.20;99.90;;;;;;5013043;28;20097;-79
2022/10/31 08:49:29;;;;;;;1999.90;999.90;;;16.40;99.90;;;;;;5012039;28;20058;-80
2022/10/31 08:51:55;;;;;;;1999.90;999.90;;;16.50;99.90;;;;;;5009081;28;20076;-82
2022/10/31 08:54:20;;;;;;;1999.90;999.90;;;16.70;99.90;;;;;;4993621;28;20061;-81
2022/10/31 08:56:46;;;;;;;1999.90;999.90;;;16.90;99.90;;;;;;5012193;28;20111;-82
2022/10/31 08:59:12;;;;;;;1999.90;999.90;;;16.80;99.90;;;;;;5011398;28;20056;-79
2022/10/31 09:01:37;;;;;;;1999.90;999.90;;;16.90;99.90;;;;;;5012258;28;20049;-79
2022/10/31 09:04:03;;;;;;;1999.90;999.90;;;17.10;99.90;;;;;;4994491;28;20408;-79
2022/10/31 09:06:28;;;;;;;1999.90;999.90;;;17.30;99.90;;;;;;5014860;28;20026;-80
2022/10/31 09:08:54;;;;;;;1999.90;999.90;;;17.40;99.90;;;;;;5013558;28;20038;-79
2022/10/31 09:11:20;;;;;;;1999.90;999.90;;;17.60;99.90;;;;;;5017354;28;20034;-79
2022/10/31 09:13:45;;;;;;;1999.90;999.90;;;17.60;99.90;;;;;;5010838;28;20033;-80
2022/10/31 09:16:11;;;;;;;1999.90;999.90;;;17.60;99.90;;;;;;4994273;28;20061;-80
2022/10/31 09:18:36;;;;;;;1999.90;999.90;;;17.80;99.90;;;;;;4994376;28;20109;-80
2022/10/31 09:21:02;;;;;;;1999.90;999.90;;;17.90;99.90;;;;;;5009859;28;20530;-80
2022/10/31 09:23:28;;;;;;;1999.90;999.90;;;18.10;99.90;;;;;;5012137;28;20108;-80
2022/10/31 09:25:53;;;;;;;1999.90;999.90;;;18.20;99.90;;;;;;4994103;28;20029;-80
2022/10/31 09:28:21;;;;;;;1999.90;999.90;;;18.20;99.90;;;;;;5011798;28;20374;-79
2022/10/31 09:30:49;;;;;;;1999.90;999.90;;;18.10;99.90;;;;;;5012201;28;20511;-80
2022/10/31 09:33:15;;;;;;;1999.90;999.90;;;18.10;99.90;;;;;;5011875;28;20101;-79
2022/10/31 09:35:41;;;;;;;1999.90;999.90;;;18.10;99.90;;;;;;4993791;28;20022;-80
2022/10/31 09:38:14;;;;;;;1999.90;999.90;;;18.20;99.90;;;;;;5009552;28;20026;-80
2022/10/31 09:41:08;;;;;;;1999.90;999.90;;;18.30;99.90;;;;;;5011776;28;20041;-80
2022/10/31 09:44:11;;;;;;;1999.90;999.90;;;18.30;99.90;;;;;;5006215;28;20112;-80
2022/10/31 09:47:00;;;;;;;1999.90;999.90;;;18.30;99.90;;;;;;5018179;28;20488;-80
2022/10/31 09:49:45;;;;;;;1999.90;999.90;;;18.30;99.90;;;;;;5031513;28;20112;-79
2022/10/31 09:52:19;;;;;;;1999.90;999.90;;;18.30;99.90;;;;;;5013097;28;20034;-79
2022/10/31 09:54:58;;;;;;;1999.90;999.90;;;18.30;99.90;;;;;;5008728;28;20057;-80
2022/10/31 09:57:30;;;;;;;1999.90;999.90;;;18.30;99.90;;;;;;5018879;28;20049;-80
2022/10/31 09:59:56;;;;;;;1999.90;999.90;;;18.50;99.90;;;;;;5014172;28;20481;-80
2022/10/31 10:02:44;;;;;;;1999.90;999.90;;;18.60;99.90;;;;;;5016009;28;20481;-80
2022/10/31 10:05:13;;;;;;;1999.90;999.90;;;18.50;99.90;;;;;;5015134;28;20445;-80
2022/10/31 10:07:44;;;;;;;1999.90;999.90;;;18.40;99.90;;;;;;5019763;28;20025;-81
2022/10/31 10:10:25;;;;;;;1999.90;999.90;;;18.40;99.90;;;;;;5015218;28;20032;-81
2022/10/31 10:13:28;;;;;;;1999.90;999.90;;;18.50;99.90;;;;;;5015186;28;20033;-81
2022/10/31 10:15:57;;;;;;;1999.90;999.90;;;18.60;99.90;;;;;;4991880;28;20040;-80
2022/10/31 10:18:28;;;;;;;1999.90;999.90;;;18.70;99.90;;;;;;5015018;28;20080;-80
2022/10/31 10:20:57;;;;;;;1999.90;999.90;;;18.70;99.90;;;;;;5014023;28;20022;-80
2022/10/31 10:23:40;;;;;;;1999.90;999.90;;;18.70;99.90;;;;;;4995618;28;20070;-80
2022/10/31 10:26:12;;;;;;;1999.90;999.90;;;18.70;99.90;;;;;;5006661;28;20554;-83
2022/10/31 10:28:41;;;;;;;1999.90;999.90;;;18.80;99.90;;;;;;5025305;28;20057;-79
2022/10/31 10:31:21;;;;;;;1999.90;999.90;;;18.80;99.90;;;;;;5015108;28;20389;-80
2022/10/31 10:34:08;;;;;;;1999.90;999.90;;;18.80;99.90;;;;;;5012854;28;20037;-79
2022/10/31 10:36:41;;;;;;;1999.90;999.90;;;18.90;99.90;;;;;;5014284;28;20018;-79
2022/10/31 10:39:39;;;;;;;1999.90;999.90;;;19.10;99.90;;;;;;5015022;28;20042;-79
2022/10/31 10:47:43;;;;;;;1999.90;999.90;;;19.40;99.90;;;;;;5013648;28;20115;-79
2022/10/31 10:50:19;;;;;;;1999.90;999.90;;;19.40;99.90;;;;;;5013932;28;20028;-79
2022/10/31 10:52:59;;;;;;;1999.90;999.90;;;19.40;99.90;;;;;;5010684;28;20050;-79
2022/10/31 10:55:41;;;;;;;1999.90;999.90;;;19.40;99.90;;;;;;5014190;28;20153;-80
2022/10/31 10:58:08;;;;;;;1999.90;999.90;;;19.40;99.90;;;;;;5013688;28;20017;-79
2022/10/31 11:00:47;;;;;;;1999.90;999.90;;;19.50;99.90;;;;;;5013884;28;20068;-78
2022/10/31 11:03:17;;;;;;;1999.90;999.90;;;19.50;99.90;;;;;;4997276;28;20116;-83
2022/10/31 11:06:00;;;;;;;1999.90;999.90;;;19.60;99.90;;;;;;4995843;28;20025;-81
2022/10/31 11:08:31;;;;;;;;;;;19.50;99.90;;;;;;5014121;28;20032;-81
2022/10/31 11:11:23;;;;;;;1999.90;999.90;;;19.50;99.90;;;;;;5012881;28;19913;-81
2022/10/31 11:13:52;;;;;;;1999.90;999.90;;;19.50;99.90;;;;;;4995665;28;20532;-81
2022/10/31 11:16:39;;;;;;;1999.90;999.90;;;19.60;99.90;;;;;;5013984;28;20100;-81
2022/10/31 11:19:16;;;;;;;1999.90;999.90;;;19.60;99.90;;;;;;5013475;28;20496;-81
2022/10/31 11:21:44;;;;;;;1999.90;999.90;;;19.70;99.90;;;;;;5011567;28;20493;-80
2022/10/31 11:24:10;;;;;;;1999.90;999.90;;;19.80;99.90;;;;;;5013327;28;20066;-80
2022/10/31 11:26:40;;;;;;;1999.90;999.90;;;19.90;99.90;;;;;;5012989;28;20073;-80
2022/10/31 11:29:16;;;;;;;1999.90;999.90;;;20.00;99.90;;;;;;4995862;28;20033;-80
2022/10/31 11:31:44;;;;;;;1999.90;999.90;;;20.10;99.90;;;;;;4996077;28;20037;-80
2022/10/31 11:34:28;;;;;;;1999.90;999.90;;;20.10;99.90;;;;;;4995872;28;20022;-81
2022/10/31 11:36:58;;;;;;;1999.90;999.90;;;20.20;99.90;;;;;;5012969;28;20493;-83
2022/10/31 11:39:24;;;;;;;1999.90;999.90;;;20.20;99.90;;;;;;5013154;28;20052;-85
2022/10/31 11:41:52;;;;;;;1999.90;999.90;;;20.20;99.90;;;;;;5013582;28;20080;-84
2022/10/31 11:44:19;;;;;;;1999.90;999.90;;;20.10;99.90;;;;;;5013494;28;20032;-78
2022/10/31 11:46:58;;;;;;;1999.90;999.90;;;20.00;99.90;;;;;;5015556;28;20092;-80
2022/10/31 11:49:39;;;;;;;1999.90;999.90;;;20.00;99.90;;;;;;5013051;28;20088;-81
2022/10/31 11:52:12;;;;;;;1999.90;999.90;;;19.80;99.90;;;;;;4988987;28;20029;-80
2022/10/31 11:54:55;;;;;;;1999.90;999.90;;;19.80;99.90;;;;;;5011431;28;20107;-80
2022/10/31 11:57:25;;;;;;;;;;;19.60;99.90;;;;;;5013553;28;20022;-79
2022/10/31 11:59:59;;;;;;;1999.90;999.90;;;19.50;99.90;;;;;;5012812;28;19909;-84
2022/10/31 12:02:26;;;;;;;1999.90;999.90;;;19.30;99.90;;;;;;4995270;28;20022;-84
2022/10/31 12:05:11;;;;;;;1999.90;999.90;;;19.20;99.90;;;;;;4995372;28;20069;-84
2022/10/31 12:07:36;;;;;;;1999.90;999.90;;;19.10;99.90;;;;;;4994876;28;20523;-84
2022/10/31 12:10:11;;;;;;;1999.90;999.90;;;19.00;99.90;;;;;;4994919;28;20057;-84
2022/10/31 12:12:43;;;;;;;1999.90;999.90;;;18.90;99.90;;;;;;5012443;28;20033;-83
2022/10/31 12:15:34;;;;;;;1999.90;999.90;;;18.80;99.90;;;;;;5012841;28;20100;-84
2022/10/31 12:18:03;;;;;;;1999.90;999.90;;;18.80;99.90;;;;;;5012703;28;20257;-83
2022/10/31 12:20:31;;;;;;;1999.90;999.90;;;18.70;99.90;;;;;;4994322;28;20018;-85
2022/10/31 12:23:15;;;;;;;1999.90;999.90;;;18.60;99.90;;;;;;5010100;28;20046;-83